Main page
METAR-TAF:

METAR-TAF

Airports :

Newport State Airport

Newport, Rhode Island, United States

latitude: 41-31-48N, longitude: 071-17-01W, elevation: 171 ft

Current weather observation

The report was made 21 minutes ago, at 05:05 UTC
Wind 10 mph from the South
Temperature 55°F
Humidity 100%
Pressure 29.97 in. Hg
Visibility: 2.5 miles
Broken clouds at a height of 400 ft
Overcast at a height of 1000 ft
light rain, mist

METAR: KUUU 210505Z AUTO 18009KT 2 1/2SM -RA BR BKN004 OVC010 13/13 A2997 RMK AO2 P0001 T01280128

Time: 01:26 (05:26 UTC)


TAF: missing

Weather observations and forecasts of more than 4000 airports (METAR and TAF reports).

The available stations are represented by yellow and red dots on the map.

Hover mouse over dot to see the name of the station.

Then click to see weather observations and forecasts.

To change the map : click on the green buttons with a black cross to zoom in, on the green button with a dash to zoom out, or on the green arrows for adjacent maps.


METAR-TAF: